Hauptseite
METAR-TAF:

METAR-TAF

Flughäfen :

Reykjavík, Island

Flughafen Reykjavík

Breite: 64-08N, Länge: 021-54W, Höhe: 54 m

Beobachtung

Neuester Wetterbericht von vor 48 Minuten, um 14:00 UTC
Wind 18 kt aus Nord/Nordwest
Temperatur -1°C
Luftfeuchtigkeit 74%
Luftdruck 1021 hPa
Sichtweite 10 km oder mehr
Leicht bewölkt in der Höhe von 3000 ft

METAR: BIRK 241400Z 34018KT 9999 FEW030 M01/M05 Q1021

Zeit: 14:48 (14:48 UTC)

Prognose

Neuester Wetterbericht von vor 1 Stunde und 9 Minuten, um 13:39 UTC
Gültige Prognose vom 24 um 15 UTC bis 25 um 15 UTC
Wind 20 kt aus Nord
Sichtweite 10 km oder mehr
Aufgelockert bewölkt in der Höhe von 3000 ft
Zeitweise
vom 24 um 15 UTC bis 24 um 22 UTC
Wind 25 kt aus Nord, Böen bis zu 40 kt
Übergehend zu
vom 25 um 06 UTC bis 25 um 09 UTC
Wind 10 kt aus Nord

TAF: BIRK 241339Z 2415/2515 36020KT 9999 SCT030 TX00/2415Z TNM02/2509Z TEMPO 2415/2422 36025G40KT BECMG 2506/2509 36010KT

Wetterbeobachtungen und Prognosen von mehr als 4000 Flughäfen (METAR und TAF Bericht).

Die verfügbaren Stationen werden durch gelbe und rote Markierungen auf der Karte dargestellt.

Führen Sie die Maus auf sie, um den Namen der Station zu sehen.

Darauf klicken, um die Beobachtung von Wetterbeobachtungen und Prognosen zu sehen.

Um die Karte zu ändern : klicken Sie auf den grünen Tasten mit einem schwarzen Kreuz Zum Vergrößern, auf den grünen Button mit einem Gedankenstrich zu verkleinern, oder auf die grünen Pfeile für benachbarte Karten.


METAR-TAF: